Warroad, MN

9:50 AM CDT on May 29, 2015 (GMT -0500)
Warroad International-Carlson | | Change Station
CLOSE
Current Station
Airport
Location: Warroad,
Elevation: 1073 ft
Nearby Weather Stations

Elev 1073 ft 48.94 °N, 95.35 °W | Updated 16 minutes ago

Overcast
Overcast
45 °F
Feels Like 38 °F
N
14
Wind Variable Wind from NW
Gusts 24 mph

Today
High -- | Low -- °F
--% Chance of Precip.
Yesterday
High -- | Low -- °F
Precip. -- in
5:24 AM 9:13 PM
Waxing Gibbous, 84% visible
Pressure 30.06 in
Visibility 10.0 miles
Clouds Overcast 1600 ft
Windchill 38 °F
Dew Point 39 °F
Humidity 81%
Rainfall 0.00 in
Snow Depth Not available.
UV 2 out of 12
Pollen 7.50 out of 12
Air Quality Not available.
Flu Activity Sporadic
METAR KRRT 291434Z AUTO 32012G21KT 10SM OVC016 07/04 A3006 RMK AO2

More Conditions Fewer Conditions

Pressure 30.06 in
Visibility 10.0 miles
Clouds Overcast 1600 ft
Windchill 38 °F
Dew Point 39 °F
Humidity 81%
Rainfall 0.00 in
Snow Depth Not available.
UV 2 out of 12
Pollen 7.50 out of 12
Air Quality Not available.
Flu Activity Sporadic
METAR KRRT 291434Z AUTO 32012G21KT 10SM OVC016 07/04 A3006 RMK AO2

More Conditions Fewer Conditions

10-Day Weather Forecast

Almanac

Astronomy

May. 29, 2015 Rise Set
Actual Time
Civil Twilight
Nautical Twilight
Astronomical Twilight
Moon
Length of Visible Light
Length of Day
Tomorrow will be .
, % of the Moon is Illuminated

Today's Extremes

State Highs State Lows

Community

WunderPhotos

Upload Photos

1,825,288 photos uploaded!

WunderBlogs® & News

Nearby

Air Quality

  Air Quality AQ Index Pollutant
Not available.

Snow Depth

Station Depth Elevation

Earthquake Activity

City Distance Mag. Time & Date
Minimum magnitude displayed is 2.5.

Coastal Water Temperatures

Place Temperature

Stations

Nearby Weather Stations

Station Location Temp. Windchill Dew Point Humidity Wind Precip. Elev Updated Type